createdAt,value
2022-10-10T00:01:32.431Z,11.65
2022-10-10T00:04:00.335Z,11.82
2022-10-10T00:06:33.041Z,11.93
2022-10-10T00:09:03.713Z,11.79
2022-10-10T00:11:33.096Z,11.48
2022-10-10T00:14:01.973Z,11.48
2022-10-10T00:16:31.295Z,11.19
2022-10-10T00:19:01.124Z,11.19
2022-10-10T00:21:27.900Z,11.05
2022-10-10T00:23:54.717Z,11.10
2022-10-10T00:26:22.053Z,11.12
2022-10-10T00:28:48.994Z,10.95
2022-10-10T00:31:23.123Z,11.20
2022-10-10T00:33:52.654Z,11.13
2022-10-10T00:36:21.313Z,11.06
2022-10-10T00:38:53.209Z,11.04
2022-10-10T00:41:20.116Z,10.82
2022-10-10T00:44:12.728Z,10.80
2022-10-10T00:46:42.770Z,10.89
2022-10-10T00:49:19.813Z,10.56
2022-10-10T00:51:51.764Z,10.71
2022-10-10T00:54:23.533Z,10.73
2022-10-10T00:56:54.782Z,10.74
2022-10-10T00:59:22.498Z,10.84
2022-10-10T01:01:49.360Z,10.84
2022-10-10T01:04:43.107Z,10.85
2022-10-10T01:07:25.497Z,10.71
2022-10-10T01:10:00.567Z,10.78
2022-10-10T01:12:45.422Z,10.79
2022-10-10T01:15:27.432Z,10.67
2022-10-10T01:18:11.558Z,10.57
2022-10-10T01:20:57.656Z,10.80
2022-10-10T01:24:02.229Z,10.79
2022-10-10T01:26:49.217Z,10.87
2022-10-10T01:29:54.122Z,10.84
2022-10-10T01:33:01.945Z,10.80
2022-10-10T01:35:57.998Z,10.59
2022-10-10T01:38:50.694Z,10.51
2022-10-10T01:41:34.288Z,10.42
2022-10-10T01:44:01.097Z,10.35
2022-10-10T01:46:33.300Z,10.18
2022-10-10T01:49:03.040Z,10.28
2022-10-10T01:51:53.424Z,10.38
2022-10-10T01:54:35.368Z,10.24
2022-10-10T01:57:22.154Z,10.35
2022-10-10T02:00:11.410Z,10.53
2022-10-10T02:02:50.481Z,10.47
2022-10-10T02:05:51.056Z,10.19
2022-10-10T02:08:35.694Z,10.01
2022-10-10T02:11:09.820Z,9.93
2022-10-10T02:14:00.420Z,9.92
2022-10-10T02:16:34.051Z,9.84
2022-10-10T02:19:11.144Z,9.72
2022-10-10T02:21:42.591Z,9.83
2022-10-10T02:24:14.252Z,9.89
2022-10-10T02:26:53.722Z,9.74
2022-10-10T02:29:28.385Z,9.94
2022-10-10T02:32:12.020Z,10.17
2022-10-10T02:34:50.987Z,10.10
2022-10-10T02:37:22.049Z,10.22
2022-10-10T02:39:58.487Z,10.16
2022-10-10T02:42:27.911Z,10.23
2022-10-10T02:44:56.395Z,10.45
2022-10-10T02:47:23.494Z,10.54
2022-10-10T02:49:51.214Z,10.53
2022-10-10T02:52:18.456Z,10.51
2022-10-10T02:54:48.378Z,10.46
2022-10-10T02:57:18.481Z,10.24
2022-10-10T02:59:45.313Z,10.44
2022-10-10T03:02:12.153Z,10.44
2022-10-10T03:04:39.223Z,10.49
2022-10-10T03:07:09.051Z,10.46
2022-10-10T03:09:38.738Z,10.35
2022-10-10T03:12:05.876Z,10.26
2022-10-10T03:14:37.935Z,10.24
2022-10-10T03:17:07.053Z,10.22
2022-10-10T03:19:36.030Z,10.06
2022-10-10T03:22:04.951Z,10.11
2022-10-10T03:24:32.168Z,10.06
2022-10-10T03:27:01.549Z,10.26
2022-10-10T03:29:30.891Z,10.35
2022-10-10T03:31:59.970Z,10.21
2022-10-10T03:34:27.153Z,10.01
2022-10-10T03:36:54.202Z,10.28
2022-10-10T03:39:21.027Z,10.23
2022-10-10T03:41:50.277Z,10.16
2022-10-10T03:44:17.107Z,10.15
2022-10-10T03:46:45.211Z,9.97
2022-10-10T03:49:11.981Z,10.05
2022-10-10T03:51:41.654Z,10.12
2022-10-10T03:54:08.503Z,9.95
2022-10-10T03:56:35.295Z,10.08
2022-10-10T03:59:07.339Z,10.16
2022-10-10T04:01:37.403Z,10.29
2022-10-10T04:04:05.115Z,10.20
2022-10-10T04:06:34.601Z,10.26
2022-10-10T04:09:04.382Z,10.11
2022-10-10T04:11:35.162Z,10.01
2022-10-10T04:14:05.021Z,9.86
2022-10-10T04:16:31.832Z,9.97
2022-10-10T04:19:01.144Z,9.99
2022-10-10T04:21:28.006Z,9.86
2022-10-10T04:23:59.728Z,9.85
2022-10-10T04:26:29.548Z,10.00
2022-10-10T04:28:56.320Z,10.00
2022-10-10T04:31:23.939Z,9.94
2022-10-10T04:33:53.557Z,9.82
2022-10-10T04:36:22.842Z,9.67
2022-10-10T04:38:52.731Z,9.63
2022-10-10T04:41:19.644Z,9.65
2022-10-10T04:43:46.936Z,9.69
2022-10-10T04:46:16.541Z,9.57
2022-10-10T04:48:46.120Z,9.54
2022-10-10T04:51:18.019Z,9.62
2022-10-10T04:53:50.563Z,9.63
2022-10-10T04:56:17.529Z,9.62
2022-10-10T04:58:46.999Z,9.58
2022-10-10T05:01:13.984Z,9.69
2022-10-10T05:03:43.479Z,9.40
2022-10-10T05:06:17.919Z,9.50
2022-10-10T05:08:47.757Z,9.56
2022-10-10T05:11:14.637Z,9.48
2022-10-10T05:13:41.493Z,9.55
2022-10-10T05:16:11.058Z,9.49
2022-10-10T05:18:44.667Z,9.27
2022-10-10T05:21:11.952Z,9.41
2022-10-10T05:23:41.854Z,9.43
2022-10-10T05:26:12.270Z,9.61
2022-10-10T05:28:39.268Z,9.35
2022-10-10T05:31:06.295Z,9.49
2022-10-10T05:33:36.640Z,9.53
2022-10-10T05:36:14.480Z,9.55
2022-10-10T05:38:42.165Z,9.61
2022-10-10T05:41:12.628Z,9.61
2022-10-10T05:43:39.705Z,9.65
2022-10-10T05:46:06.767Z,9.55
2022-10-10T05:48:38.484Z,9.52
2022-10-10T05:51:07.639Z,9.60
2022-10-10T05:53:34.508Z,9.56
2022-10-10T05:56:02.232Z,9.41
2022-10-10T05:58:33.724Z,9.70
2022-10-10T06:01:08.064Z,10.17
2022-10-10T06:03:39.752Z,10.53
2022-10-10T06:06:09.588Z,11.03
2022-10-10T06:08:36.477Z,11.37
2022-10-10T06:11:11.256Z,11.59
2022-10-10T06:13:41.218Z,11.93
2022-10-10T06:16:08.042Z,12.15
2022-10-10T06:18:35.149Z,12.66
2022-10-10T06:21:05.231Z,12.91
2022-10-10T06:23:33.125Z,13.48
2022-10-10T06:26:02.029Z,13.88
2022-10-10T06:28:31.248Z,14.12
2022-10-10T06:31:03.838Z,15.03
2022-10-10T06:33:31.243Z,15.44
2022-10-10T06:36:00.496Z,16.24
2022-10-10T06:38:27.662Z,16.08
2022-10-10T06:40:58.510Z,16.49
2022-10-10T06:43:29.863Z,16.52
2022-10-10T06:45:57.566Z,16.97
2022-10-10T06:48:24.541Z,17.54
2022-10-10T06:51:07.739Z,17.42
2022-10-10T06:53:44.103Z,17.88
2022-10-10T06:56:24.977Z,18.01
2022-10-10T06:58:54.671Z,18.54
2022-10-10T07:01:24.155Z,19.24
2022-10-10T07:03:51.151Z,18.87
2022-10-10T07:06:18.454Z,18.96
2022-10-10T07:08:47.818Z,19.52
2022-10-10T07:11:18.075Z,19.47
2022-10-10T07:13:44.887Z,19.34
2022-10-10T07:16:14.009Z,19.89
2022-10-10T07:18:43.105Z,20.51
2022-10-10T07:21:10.501Z,20.36
2022-10-10T07:23:37.632Z,19.52
2022-10-10T07:26:08.883Z,19.71
2022-10-10T07:28:35.845Z,20.45
2022-10-10T07:31:12.020Z,20.96
2022-10-10T07:33:47.405Z,21.06
2022-10-10T07:36:19.632Z,20.20
2022-10-10T07:38:53.046Z,20.49
2022-10-10T07:41:21.072Z,21.53
2022-10-10T07:43:53.573Z,21.33
2022-10-10T07:46:22.948Z,21.11
2022-10-10T07:48:52.437Z,22.67
2022-10-10T07:51:19.260Z,23.03
2022-10-10T07:53:46.167Z,23.36
2022-10-10T07:56:13.049Z,21.83
2022-10-10T07:58:40.134Z,22.39
2022-10-10T08:01:12.247Z,23.90
2022-10-10T08:03:40.173Z,24.08
2022-10-10T08:06:11.760Z,23.46
2022-10-10T08:08:50.313Z,23.58
2022-10-10T08:11:21.720Z,25.46
2022-10-10T08:13:49.686Z,26.23
2022-10-10T08:16:17.006Z,27.62
2022-10-10T08:18:44.050Z,26.70
2022-10-10T08:21:13.203Z,27.02
2022-10-10T08:23:40.429Z,26.94
2022-10-10T08:26:10.456Z,26.77
2022-10-10T08:28:41.911Z,26.86
2022-10-10T08:31:18.286Z,26.77
2022-10-10T08:33:48.697Z,27.73
2022-10-10T08:36:19.345Z,28.21
2022-10-10T08:38:47.276Z,27.89
2022-10-10T08:41:48.650Z,26.89
2022-10-10T08:44:24.311Z,26.17
2022-10-10T08:47:02.984Z,25.10
2022-10-10T08:49:41.517Z,24.32
2022-10-10T08:52:35.633Z,25.27
2022-10-10T08:55:10.751Z,26.88
2022-10-10T08:58:19.420Z,27.40
2022-10-10T09:00:56.326Z,27.82
2022-10-10T09:03:47.679Z,28.47
2022-10-10T09:06:51.624Z,27.66
2022-10-10T09:10:00.807Z,30.11
2022-10-10T09:12:51.088Z,30.89
2022-10-10T09:15:26.404Z,31.29
2022-10-10T09:18:15.759Z,28.88
2022-10-10T09:21:18.968Z,28.79
2022-10-10T09:24:21.138Z,28.71
2022-10-10T09:26:58.798Z,28.73
2022-10-10T09:29:32.260Z,29.61
2022-10-10T09:32:11.618Z,30.51
2022-10-10T09:34:49.286Z,30.75
2022-10-10T09:37:46.232Z,30.90
2022-10-10T09:40:36.800Z,29.91
2022-10-10T09:43:19.050Z,31.32
2022-10-10T09:45:56.249Z,32.60
2022-10-10T09:48:33.937Z,33.70
2022-10-10T09:51:05.429Z,31.64
2022-10-10T09:53:32.302Z,31.29
2022-10-10T09:56:02.853Z,32.47
2022-10-10T09:58:45.088Z,33.45
2022-10-10T10:01:34.404Z,32.27
2022-10-10T10:04:34.476Z,32.92
2022-10-10T10:07:32.091Z,32.51
2022-10-10T10:10:18.840Z,34.03
2022-10-10T10:12:46.563Z,34.22
2022-10-10T10:15:23.038Z,34.65
2022-10-10T10:18:19.325Z,32.24
2022-10-10T10:20:50.713Z,32.77
2022-10-10T10:23:23.545Z,32.95
2022-10-10T10:26:30.009Z,32.57
2022-10-10T10:28:58.087Z,33.68
2022-10-10T10:31:53.746Z,33.51
2022-10-10T10:34:48.324Z,31.86
2022-10-10T10:38:04.319Z,34.38
2022-10-10T10:40:41.081Z,34.82
2022-10-10T10:43:25.683Z,34.73
2022-10-10T10:46:37.899Z,35.64
2022-10-10T10:49:16.145Z,35.72
2022-10-10T10:52:04.877Z,36.87
2022-10-10T10:55:12.790Z,33.41
2022-10-10T10:58:57.963Z,31.99
2022-10-10T11:01:20.329Z,33.94
2022-10-10T11:05:20.168Z,35.54
2022-10-10T11:07:20.936Z,36.21
2022-10-10T11:10:54.600Z,34.93
2022-10-10T11:13:32.878Z,35.26
2022-10-10T11:16:36.281Z,33.81
2022-10-10T11:19:11.945Z,34.03
2022-10-10T11:21:50.162Z,33.64
2022-10-10T11:24:43.468Z,32.57
2022-10-10T11:27:21.033Z,33.26
2022-10-10T11:30:20.757Z,33.87
2022-10-10T11:32:55.756Z,34.18
2022-10-10T11:35:46.389Z,33.07
2022-10-10T11:38:20.022Z,30.25
2022-10-10T11:40:54.273Z,31.82
2022-10-10T11:44:08.386Z,30.26
2022-10-10T11:47:08.223Z,30.64
2022-10-10T11:50:12.371Z,33.89
2022-10-10T11:52:55.855Z,35.40
2022-10-10T11:55:27.174Z,34.09
2022-10-10T11:58:06.362Z,32.79
2022-10-10T12:00:54.288Z,31.27
2022-10-10T12:03:21.085Z,31.25
2022-10-10T12:05:58.707Z,32.42
2022-10-10T12:08:36.093Z,33.92
2022-10-10T12:11:16.872Z,33.93
2022-10-10T12:13:49.520Z,33.44
2022-10-10T12:16:30.415Z,33.52
2022-10-10T12:19:22.487Z,32.88
2022-10-10T12:21:55.329Z,31.51
2022-10-10T12:24:23.977Z,33.82
2022-10-10T12:26:56.957Z,34.97
2022-10-10T12:29:50.879Z,34.82
2022-10-10T12:32:23.035Z,33.11
2022-10-10T12:34:49.735Z,31.85
2022-10-10T12:37:29.641Z,31.34
2022-10-10T12:40:19.832Z,31.14
2022-10-10T12:42:46.562Z,31.24
2022-10-10T12:45:31.436Z,30.13
2022-10-10T12:48:06.343Z,29.77
2022-10-10T12:50:55.096Z,30.24
2022-10-10T12:53:25.579Z,30.88
2022-10-10T12:56:02.070Z,28.79
2022-10-10T12:58:33.781Z,28.23
2022-10-10T13:01:06.544Z,28.37
2022-10-10T13:03:45.474Z,27.37
2022-10-10T13:06:30.632Z,28.18
2022-10-10T13:08:59.145Z,28.33
2022-10-10T13:11:28.478Z,28.29
2022-10-10T13:13:57.364Z,28.66
2022-10-10T13:16:34.129Z,30.29
2022-10-10T13:19:03.743Z,30.61
2022-10-10T13:21:36.675Z,31.75
2022-10-10T13:24:14.386Z,31.30
2022-10-10T13:26:50.953Z,29.01
2022-10-10T13:29:33.209Z,29.48
2022-10-10T13:32:23.823Z,30.52
2022-10-10T13:35:00.600Z,28.45
2022-10-10T13:37:33.221Z,29.89
2022-10-10T13:40:01.022Z,29.47
2022-10-10T13:42:30.434Z,29.05
2022-10-10T13:45:00.189Z,28.29
2022-10-10T13:47:52.638Z,29.74
2022-10-10T13:50:35.384Z,30.36
2022-10-10T13:53:27.323Z,29.58
2022-10-10T13:56:31.823Z,27.48
2022-10-10T13:59:01.560Z,26.43
2022-10-10T14:01:47.504Z,25.01
2022-10-10T14:04:26.213Z,24.25
2022-10-10T14:07:04.852Z,25.08
2022-10-10T14:09:37.286Z,25.55
2022-10-10T14:12:08.734Z,25.76
2022-10-10T14:14:50.018Z,25.61
2022-10-10T14:17:20.397Z,24.89
2022-10-10T14:19:48.669Z,24.79
2022-10-10T14:22:16.057Z,24.44
2022-10-10T14:24:49.124Z,25.03
2022-10-10T14:27:24.271Z,25.14
2022-10-10T14:29:56.766Z,25.21
2022-10-10T14:32:26.897Z,25.29
2022-10-10T14:34:53.869Z,25.20
2022-10-10T14:37:25.618Z,24.20
2022-10-10T14:39:53.145Z,24.07
2022-10-10T14:42:21.975Z,24.10
2022-10-10T14:44:49.320Z,24.06
2022-10-10T14:47:22.084Z,23.89
2022-10-10T14:49:49.519Z,24.30
2022-10-10T14:52:16.365Z,24.49
2022-10-10T14:54:45.716Z,24.18
2022-10-10T14:57:14.191Z,24.06
2022-10-10T14:59:47.903Z,23.36
2022-10-10T15:02:21.770Z,23.32
2022-10-10T15:04:51.747Z,23.35
2022-10-10T15:07:19.495Z,23.17
2022-10-10T15:12:43.791Z,22.42
2022-10-10T15:15:12.969Z,22.39
2022-10-10T15:17:40.950Z,22.45
2022-10-10T15:20:14.771Z,22.33
2022-10-10T15:22:43.516Z,21.97
2022-10-10T15:25:13.217Z,21.84
2022-10-10T15:27:40.075Z,21.73
2022-10-10T15:30:10.539Z,21.68
2022-10-10T15:32:42.315Z,21.67
2022-10-10T15:35:21.034Z,21.35
2022-10-10T15:37:48.196Z,21.57
2022-10-10T15:40:24.526Z,21.42
2022-10-10T15:42:53.957Z,20.91
2022-10-10T15:45:44.063Z,21.04
2022-10-10T15:48:09.802Z,20.66
2022-10-10T15:50:42.653Z,20.43
2022-10-10T15:53:09.489Z,20.48
2022-10-10T15:55:46.358Z,20.56
2022-10-10T15:58:18.693Z,20.59
2022-10-10T16:00:48.302Z,20.03
2022-10-10T16:03:15.166Z,20.21
2022-10-10T16:05:42.743Z,20.27
2022-10-10T16:08:13.664Z,20.30
2022-10-10T16:10:44.790Z,20.36
2022-10-10T16:13:11.939Z,20.41
2022-10-10T16:15:41.843Z,20.29
2022-10-10T16:18:08.679Z,20.29
2022-10-10T16:20:38.520Z,20.20
2022-10-10T16:23:09.978Z,20.21
2022-10-10T16:25:41.353Z,20.37
2022-10-10T16:28:08.315Z,20.21
2022-10-10T16:30:36.218Z,20.20
2022-10-10T16:33:05.554Z,20.25
2022-10-10T16:35:37.560Z,20.22
2022-10-10T16:38:04.505Z,20.29
2022-10-10T16:40:33.390Z,20.19
2022-10-10T16:43:03.289Z,19.93
2022-10-10T16:45:34.812Z,19.88
2022-10-10T16:48:01.745Z,19.79
2022-10-10T16:50:28.590Z,19.81
2022-10-10T16:52:55.440Z,20.11
2022-10-10T16:55:22.232Z,20.24
2022-10-10T16:57:51.519Z,20.13
2022-10-10T17:00:18.400Z,19.87
2022-10-10T17:02:45.274Z,19.54
2022-10-10T17:05:12.181Z,19.49
2022-10-10T17:07:39.038Z,19.28
2022-10-10T17:10:09.157Z,19.09
2022-10-10T17:12:40.617Z,19.00
2022-10-10T17:15:08.282Z,18.71
2022-10-10T17:17:36.304Z,18.61
2022-10-10T17:20:04.291Z,18.31
2022-10-10T17:22:31.671Z,18.32
2022-10-10T17:24:58.607Z,18.33
2022-10-10T17:27:28.002Z,18.10
2022-10-10T17:29:57.717Z,18.03
2022-10-10T17:32:24.590Z,18.07
2022-10-10T17:34:51.497Z,17.96
2022-10-10T17:37:18.412Z,17.87
2022-10-10T17:39:46.445Z,17.70
2022-10-10T17:42:15.594Z,17.44
2022-10-10T17:44:49.607Z,17.52
2022-10-10T17:47:21.390Z,17.48
2022-10-10T17:49:48.229Z,17.61
2022-10-10T17:52:21.263Z,17.40
2022-10-10T17:54:51.057Z,17.44
2022-10-10T17:57:23.686Z,17.51
2022-10-10T17:59:53.019Z,17.39
2022-10-10T18:02:23.161Z,17.21
2022-10-10T18:04:54.607Z,17.30
2022-10-10T18:07:21.462Z,17.24
2022-10-10T18:09:51.732Z,17.27
2022-10-10T18:12:22.228Z,17.09
2022-10-10T18:14:52.870Z,17.04
2022-10-10T18:17:19.789Z,17.06
2022-10-10T18:19:48.864Z,16.86
2022-10-10T18:22:18.435Z,16.99
2022-10-10T18:24:45.677Z,16.77
2022-10-10T18:27:15.154Z,16.87
2022-10-10T18:29:44.854Z,16.90
2022-10-10T18:32:14.392Z,16.68
2022-10-10T18:34:43.884Z,16.90
2022-10-10T18:37:15.818Z,16.69
2022-10-10T18:39:42.686Z,16.90
2022-10-10T18:42:12.260Z,16.61
2022-10-10T18:44:39.422Z,16.46
2022-10-10T18:47:06.336Z,16.53
2022-10-10T18:49:33.308Z,16.38
2022-10-10T18:52:03.143Z,16.38
2022-10-10T18:54:35.516Z,16.50
2022-10-10T18:57:05.354Z,16.28
2022-10-10T18:59:32.709Z,16.29
2022-10-10T19:01:59.861Z,16.21
2022-10-10T19:04:26.936Z,16.27
2022-10-10T19:06:57.799Z,16.37
2022-10-10T19:09:25.272Z,16.39
2022-10-10T19:11:53.915Z,16.40
2022-10-10T19:14:21.287Z,16.35
2022-10-10T19:16:49.002Z,16.21
2022-10-10T19:19:18.607Z,16.18
2022-10-10T19:21:48.787Z,16.06
2022-10-10T19:24:19.514Z,15.92
2022-10-10T19:26:51.925Z,15.75
2022-10-10T19:29:19.380Z,15.80
2022-10-10T19:31:48.832Z,15.69
2022-10-10T19:34:15.672Z,15.83
2022-10-10T19:36:42.747Z,15.75
2022-10-10T19:39:12.173Z,15.42
2022-10-10T19:41:39.114Z,15.36
2022-10-10T19:44:06.391Z,15.43
2022-10-10T19:46:37.396Z,15.28
2022-10-10T19:49:05.068Z,15.24
2022-10-10T19:51:31.888Z,15.33
2022-10-10T19:54:01.431Z,15.17
2022-10-10T19:56:28.304Z,15.13
2022-10-10T19:58:58.349Z,15.00
2022-10-10T20:01:29.910Z,15.08
2022-10-10T20:04:00.058Z,14.89
2022-10-10T20:06:27.588Z,14.83
2022-10-10T20:08:55.288Z,14.78
2022-10-10T20:11:23.284Z,14.88
2022-10-10T20:13:55.240Z,14.61
2022-10-10T20:16:24.117Z,14.69
2022-10-10T20:18:51.671Z,14.75
2022-10-10T20:21:29.244Z,14.58
2022-10-10T20:23:56.698Z,14.63
2022-10-10T20:26:26.826Z,14.54
2022-10-10T20:28:56.108Z,14.50
2022-10-10T20:31:27.276Z,14.39
2022-10-10T20:33:58.237Z,14.31
2022-10-10T20:36:28.096Z,14.38
2022-10-10T20:39:00.542Z,14.12
2022-10-10T20:41:31.330Z,14.27
2022-10-10T20:44:03.360Z,14.29
2022-10-10T20:46:35.340Z,14.29
2022-10-10T20:49:04.554Z,14.14
2022-10-10T20:51:31.730Z,14.20
2022-10-10T20:54:04.454Z,14.24
2022-10-10T20:56:34.657Z,14.15
2022-10-10T20:59:01.929Z,14.11
2022-10-10T21:01:32.737Z,14.06
2022-10-10T21:04:01.098Z,14.11
2022-10-10T21:06:36.033Z,14.02
2022-10-10T21:09:07.862Z,14.03
2022-10-10T21:11:35.477Z,14.07
2022-10-10T21:14:02.713Z,14.01
2022-10-10T21:16:36.385Z,13.93
2022-10-10T21:19:05.957Z,14.02
2022-10-10T21:21:35.161Z,14.14
2022-10-10T21:24:06.211Z,14.04
2022-10-10T21:26:33.774Z,14.06
2022-10-10T21:29:03.208Z,14.05
2022-10-10T21:31:34.793Z,13.96
2022-10-10T21:34:03.547Z,13.81
2022-10-10T21:36:31.373Z,13.89
2022-10-10T21:39:01.317Z,13.67
2022-10-10T21:41:28.998Z,13.86
2022-10-10T21:44:00.303Z,13.87
2022-10-10T21:46:35.806Z,13.75
2022-10-10T21:49:07.879Z,13.84
2022-10-10T21:51:38.476Z,13.74
2022-10-10T21:54:06.229Z,13.63
2022-10-10T21:56:36.125Z,13.68
2022-10-10T21:59:03.447Z,13.62
2022-10-10T22:01:33.226Z,13.66
2022-10-10T22:04:04.592Z,13.70
2022-10-10T22:06:34.203Z,13.78
2022-10-10T22:09:06.182Z,13.74
2022-10-10T22:11:35.938Z,13.66
2022-10-10T22:14:05.568Z,13.64
2022-10-10T22:16:33.572Z,13.50
2022-10-10T22:19:04.236Z,13.68
2022-10-10T22:21:32.385Z,13.49
2022-10-10T22:24:06.430Z,13.58
2022-10-10T22:26:35.055Z,13.61
2022-10-10T22:29:04.349Z,13.19
2022-10-10T22:31:31.272Z,13.21
2022-10-10T22:33:58.366Z,13.20
2022-10-10T22:36:25.180Z,13.30
2022-10-10T22:38:54.262Z,13.34
2022-10-10T22:41:23.276Z,13.30
2022-10-10T22:43:52.698Z,13.39
2022-10-10T22:46:19.676Z,13.27
2022-10-10T22:48:52.023Z,13.10
2022-10-10T22:51:23.460Z,13.19
2022-10-10T22:53:50.512Z,13.19
2022-10-10T22:56:21.165Z,12.99
2022-10-10T22:58:52.132Z,12.93
2022-10-10T23:01:26.203Z,13.18
2022-10-10T23:04:03.311Z,13.07
2022-10-10T23:06:32.641Z,12.99
2022-10-10T23:09:01.619Z,12.93
2022-10-10T23:11:30.986Z,12.99
2022-10-10T23:13:58.092Z,13.08
2022-10-10T23:16:25.039Z,13.03
2022-10-10T23:18:54.042Z,12.92
2022-10-10T23:21:21.138Z,12.90
2022-10-10T23:23:50.467Z,12.91
2022-10-10T23:26:17.493Z,12.99
2022-10-10T23:28:49.450Z,12.99
2022-10-10T23:31:16.365Z,13.03
2022-10-10T23:33:45.756Z,12.78
2022-10-10T23:36:16.922Z,12.83
2022-10-10T23:38:46.527Z,12.82
2022-10-10T23:41:14.385Z,12.91
2022-10-10T23:43:41.316Z,12.75
2022-10-10T23:46:08.829Z,12.49
2022-10-10T23:48:38.864Z,12.63
2022-10-10T23:51:08.713Z,12.64
2022-10-10T23:53:35.925Z,12.53
2022-10-10T23:56:08.060Z,12.24
2022-10-10T23:58:35.507Z,12.46
